sensor_id;sensor_type;location;lat;lon;timestamp;P1;durP1;ratioP1;P2;durP2;ratioP2
30173;SDS011;16985;50.814;8.530;2023-03-15T00:01:10;22.88;;;5.63;;
30173;SDS011;16985;50.814;8.530;2023-03-15T00:03:43;16.75;;;3.97;;
30173;SDS011;16985;50.814;8.530;2023-03-15T00:06:10;15.77;;;4.72;;
30173;SDS011;16985;50.814;8.530;2023-03-15T00:08:36;35.90;;;4.60;;
30173;SDS011;16985;50.814;8.530;2023-03-15T00:11:05;21.08;;;4.47;;
30173;SDS011;16985;50.814;8.530;2023-03-15T00:13:34;16.23;;;3.67;;
30173;SDS011;16985;50.814;8.530;2023-03-15T00:16:00;18.05;;;4.72;;
30173;SDS011;16985;50.814;8.530;2023-03-15T00:18:35;14.70;;;4.43;;
30173;SDS011;16985;50.814;8.530;2023-03-15T00:21:02;13.57;;;3.58;;
30173;SDS011;16985;50.814;8.530;2023-03-15T00:23:28;18.33;;;5.85;;
30173;SDS011;16985;50.814;8.530;2023-03-15T00:25:55;15.77;;;4.00;;
30173;SDS011;16985;50.814;8.530;2023-03-15T00:28:21;20.17;;;3.80;;
30173;SDS011;16985;50.814;8.530;2023-03-15T00:30:47;16.45;;;4.25;;
30173;SDS011;16985;50.814;8.530;2023-03-15T00:33:13;12.57;;;4.13;;
30173;SDS011;16985;50.814;8.530;2023-03-15T00:35:41;10.75;;;3.92;;
30173;SDS011;16985;50.814;8.530;2023-03-15T00:38:12;12.95;;;3.15;;
30173;SDS011;16985;50.814;8.530;2023-03-15T00:40:40;12.75;;;3.67;;
30173;SDS011;16985;50.814;8.530;2023-03-15T00:43:06;11.48;;;3.47;;
30173;SDS011;16985;50.814;8.530;2023-03-15T00:45:32;19.08;;;4.07;;
30173;SDS011;16985;50.814;8.530;2023-03-15T00:47:58;15.82;;;4.10;;
30173;SDS011;16985;50.814;8.530;2023-03-15T00:50:24;9.43;;;3.30;;
30173;SDS011;16985;50.814;8.530;2023-03-15T00:52:50;17.00;;;3.58;;
30173;SDS011;16985;50.814;8.530;2023-03-15T00:55:17;13.80;;;3.47;;
30173;SDS011;16985;50.814;8.530;2023-03-15T00:57:44;16.65;;;3.53;;
30173;SDS011;16985;50.814;8.530;2023-03-15T01:00:12;16.27;;;3.65;;
30173;SDS011;16985;50.814;8.530;2023-03-15T01:02:51;14.88;;;4.03;;
30173;SDS011;16985;50.814;8.530;2023-03-15T01:05:18;16.48;;;3.70;;
30173;SDS011;16985;50.814;8.530;2023-03-15T01:07:45;18.23;;;5.18;;
30173;SDS011;16985;50.814;8.530;2023-03-15T01:10:11;14.05;;;3.20;;
30173;SDS011;16985;50.814;8.530;2023-03-15T01:12:40;13.73;;;3.33;;
30173;SDS011;16985;50.814;8.530;2023-03-15T01:15:15;13.88;;;3.33;;
30173;SDS011;16985;50.814;8.530;2023-03-15T01:17:42;12.98;;;3.30;;
30173;SDS011;16985;50.814;8.530;2023-03-15T01:20:10;10.73;;;2.90;;
30173;SDS011;16985;50.814;8.530;2023-03-15T01:22:40;25.35;;;5.28;;
30173;SDS011;16985;50.814;8.530;2023-03-15T01:25:06;15.63;;;3.38;;
30173;SDS011;16985;50.814;8.530;2023-03-15T01:27:33;10.13;;;3.05;;
30173;SDS011;16985;50.814;8.530;2023-03-15T01:29:59;12.45;;;3.17;;
30173;SDS011;16985;50.814;8.530;2023-03-15T01:32:25;18.83;;;3.05;;
30173;SDS011;16985;50.814;8.530;2023-03-15T01:35:01;16.77;;;2.78;;
30173;SDS011;16985;50.814;8.530;2023-03-15T01:37:27;14.40;;;3.60;;
30173;SDS011;16985;50.814;8.530;2023-03-15T01:39:53;11.52;;;3.55;;
30173;SDS011;16985;50.814;8.530;2023-03-15T01:42:19;18.08;;;3.50;;
30173;SDS011;16985;50.814;8.530;2023-03-15T01:44:46;15.38;;;2.92;;
30173;SDS011;16985;50.814;8.530;2023-03-15T01:47:21;16.88;;;2.97;;
30173;SDS011;16985;50.814;8.530;2023-03-15T01:49:52;23.25;;;3.97;;
30173;SDS011;16985;50.814;8.530;2023-03-15T01:52:25;25.95;;;5.25;;
30173;SDS011;16985;50.814;8.530;2023-03-15T01:57:38;11.10;;;3.30;;
30173;SDS011;16985;50.814;8.530;2023-03-15T02:00:12;12.10;;;3.80;;
30173;SDS011;16985;50.814;8.530;2023-03-15T02:03:05;19.70;;;4.70;;
30173;SDS011;16985;50.814;8.530;2023-03-15T02:05:43;8.27;;;2.67;;
30173;SDS011;16985;50.814;8.530;2023-03-15T02:08:25;13.20;;;3.13;;
30173;SDS011;16985;50.814;8.530;2023-03-15T02:10:56;18.98;;;2.95;;
30173;SDS011;16985;50.814;8.530;2023-03-15T02:13:27;13.85;;;2.80;;
30173;SDS011;16985;50.814;8.530;2023-03-15T02:15:56;16.17;;;3.00;;
30173;SDS011;16985;50.814;8.530;2023-03-15T02:18:30;14.63;;;3.17;;
30173;SDS011;16985;50.814;8.530;2023-03-15T02:23:48;13.13;;;3.83;;
30173;SDS011;16985;50.814;8.530;2023-03-15T02:26:32;9.88;;;3.17;;
30173;SDS011;16985;50.814;8.530;2023-03-15T02:29:06;10.20;;;3.33;;
30173;SDS011;16985;50.814;8.530;2023-03-15T02:31:32;8.70;;;3.00;;
30173;SDS011;16985;50.814;8.530;2023-03-15T02:34:02;18.45;;;4.05;;
30173;SDS011;16985;50.814;8.530;2023-03-15T02:36:31;10.52;;;3.35;;
30173;SDS011;16985;50.814;8.530;2023-03-15T02:38:59;18.53;;;4.53;;
30173;SDS011;16985;50.814;8.530;2023-03-15T02:41:26;9.10;;;3.10;;
30173;SDS011;16985;50.814;8.530;2023-03-15T02:44:01;9.13;;;3.22;;
30173;SDS011;16985;50.814;8.530;2023-03-15T02:46:33;8.32;;;3.40;;
30173;SDS011;16985;50.814;8.530;2023-03-15T02:49:02;15.50;;;4.53;;
30173;SDS011;16985;50.814;8.530;2023-03-15T02:51:31;16.10;;;3.63;;
30173;SDS011;16985;50.814;8.530;2023-03-15T02:56:24;14.02;;;5.90;;
30173;SDS011;16985;50.814;8.530;2023-03-15T02:58:50;14.20;;;4.22;;
30173;SDS011;16985;50.814;8.530;2023-03-15T03:01:17;13.80;;;4.40;;
30173;SDS011;16985;50.814;8.530;2023-03-15T03:04:01;14.32;;;3.85;;
30173;SDS011;16985;50.814;8.530;2023-03-15T03:06:27;13.25;;;4.90;;
30173;SDS011;16985;50.814;8.530;2023-03-15T03:08:53;21.23;;;4.53;;
30173;SDS011;16985;50.814;8.530;2023-03-15T03:11:19;12.00;;;3.90;;
30173;SDS011;16985;50.814;8.530;2023-03-15T03:13:45;15.50;;;3.58;;
30173;SDS011;16985;50.814;8.530;2023-03-15T03:16:12;11.00;;;4.18;;
30173;SDS011;16985;50.814;8.530;2023-03-15T03:18:52;15.20;;;3.80;;
30173;SDS011;16985;50.814;8.530;2023-03-15T03:21:19;21.45;;;5.15;;
30173;SDS011;16985;50.814;8.530;2023-03-15T03:23:45;13.48;;;4.53;;
30173;SDS011;16985;50.814;8.530;2023-03-15T03:26:15;14.65;;;3.67;;
30173;SDS011;16985;50.814;8.530;2023-03-15T03:28:44;8.80;;;3.42;;
30173;SDS011;16985;50.814;8.530;2023-03-15T03:31:19;7.57;;;3.40;;
30173;SDS011;16985;50.814;8.530;2023-03-15T03:33:50;17.40;;;3.47;;
30173;SDS011;16985;50.814;8.530;2023-03-15T03:36:19;11.20;;;3.55;;
30173;SDS011;16985;50.814;8.530;2023-03-15T03:38:45;11.82;;;3.33;;
30173;SDS011;16985;50.814;8.530;2023-03-15T03:41:27;9.57;;;3.25;;
30173;SDS011;16985;50.814;8.530;2023-03-15T03:43:53;8.55;;;3.05;;
30173;SDS011;16985;50.814;8.530;2023-03-15T03:46:21;16.30;;;4.88;;
30173;SDS011;16985;50.814;8.530;2023-03-15T03:48:50;12.05;;;4.00;;
30173;SDS011;16985;50.814;8.530;2023-03-15T03:51:16;9.30;;;3.15;;
30173;SDS011;16985;50.814;8.530;2023-03-15T03:53:42;11.15;;;2.80;;
30173;SDS011;16985;50.814;8.530;2023-03-15T03:56:08;8.45;;;3.03;;
30173;SDS011;16985;50.814;8.530;2023-03-15T03:58:43;8.07;;;2.85;;
30173;SDS011;16985;50.814;8.530;2023-03-15T04:01:19;4.43;;;2.97;;
30173;SDS011;16985;50.814;8.530;2023-03-15T04:03:48;7.88;;;3.30;;
30173;SDS011;16985;50.814;8.530;2023-03-15T04:06:18;5.93;;;2.67;;
30173;SDS011;16985;50.814;8.530;2023-03-15T04:08:45;7.73;;;2.90;;
30173;SDS011;16985;50.814;8.530;2023-03-15T04:11:16;2.50;;;2.22;;
30173;SDS011;16985;50.814;8.530;2023-03-15T04:16:19;6.47;;;2.65;;
30173;SDS011;16985;50.814;8.530;2023-03-15T04:19:12;7.25;;;2.80;;
30173;SDS011;16985;50.814;8.530;2023-03-15T04:21:38;7.90;;;3.63;;
30173;SDS011;16985;50.814;8.530;2023-03-15T04:24:18;3.05;;;1.95;;
30173;SDS011;16985;50.814;8.530;2023-03-15T04:27:03;3.63;;;2.20;;
30173;SDS011;16985;50.814;8.530;2023-03-15T04:29:48;5.10;;;2.25;;
30173;SDS011;16985;50.814;8.530;2023-03-15T04:32:32;2.10;;;1.90;;
30173;SDS011;16985;50.814;8.530;2023-03-15T04:35:34;4.78;;;2.00;;
30173;SDS011;16985;50.814;8.530;2023-03-15T04:38:25;3.95;;;1.83;;
30173;SDS011;16985;50.814;8.530;2023-03-15T04:41:07;2.50;;;2.10;;
30173;SDS011;16985;50.814;8.530;2023-03-15T04:44:01;2.80;;;2.20;;
30173;SDS011;16985;50.814;8.530;2023-03-15T04:46:50;3.58;;;1.92;;
30173;SDS011;16985;50.814;8.530;2023-03-15T04:49:24;2.75;;;2.28;;
30173;SDS011;16985;50.814;8.530;2023-03-15T04:51:59;3.72;;;2.33;;
30173;SDS011;16985;50.814;8.530;2023-03-15T04:54:47;5.40;;;2.58;;
30173;SDS011;16985;50.814;8.530;2023-03-15T04:57:33;7.07;;;2.30;;
30173;SDS011;16985;50.814;8.530;2023-03-15T05:00:17;4.55;;;2.38;;
30173;SDS011;16985;50.814;8.530;2023-03-15T05:02:59;3.95;;;2.35;;
30173;SDS011;16985;50.814;8.530;2023-03-15T05:05:59;2.20;;;2.00;;
30173;SDS011;16985;50.814;8.530;2023-03-15T05:08:49;2.47;;;2.28;;
30173;SDS011;16985;50.814;8.530;2023-03-15T05:11:33;3.33;;;2.17;;
30173;SDS011;16985;50.814;8.530;2023-03-15T05:14:33;3.53;;;2.35;;
30173;SDS011;16985;50.814;8.530;2023-03-15T05:17:05;3.83;;;2.30;;
30173;SDS011;16985;50.814;8.530;2023-03-15T05:19:57;4.43;;;3.30;;
30173;SDS011;16985;50.814;8.530;2023-03-15T05:22:51;2.53;;;2.33;;
30173;SDS011;16985;50.814;8.530;2023-03-15T05:25:37;2.80;;;2.50;;
30173;SDS011;16985;50.814;8.530;2023-03-15T05:28:18;3.88;;;2.33;;
30173;SDS011;16985;50.814;8.530;2023-03-15T05:31:06;3.70;;;2.75;;
30173;SDS011;16985;50.814;8.530;2023-03-15T05:33:52;2.78;;;2.58;;
30173;SDS011;16985;50.814;8.530;2023-03-15T05:36:35;3.78;;;2.63;;
30173;SDS011;16985;50.814;8.530;2023-03-15T05:39:28;5.47;;;2.63;;
30173;SDS011;16985;50.814;8.530;2023-03-15T05:42:04;2.50;;;2.30;;
30173;SDS011;16985;50.814;8.530;2023-03-15T05:44:36;2.97;;;2.45;;
30173;SDS011;16985;50.814;8.530;2023-03-15T05:47:20;4.43;;;2.63;;
30173;SDS011;16985;50.814;8.530;2023-03-15T05:50:08;3.35;;;2.65;;
30173;SDS011;16985;50.814;8.530;2023-03-15T05:52:45;6.38;;;2.90;;
30173;SDS011;16985;50.814;8.530;2023-03-15T05:55:33;2.83;;;2.57;;
30173;SDS011;16985;50.814;8.530;2023-03-15T05:58:13;3.33;;;2.42;;
30173;SDS011;16985;50.814;8.530;2023-03-15T06:00:57;3.58;;;2.83;;
30173;SDS011;16985;50.814;8.530;2023-03-15T06:03:43;6.25;;;3.13;;
30173;SDS011;16985;50.814;8.530;2023-03-15T06:06:17;5.97;;;3.30;;
30173;SDS011;16985;50.814;8.530;2023-03-15T06:08:43;6.18;;;4.57;;
30173;SDS011;16985;50.814;8.530;2023-03-15T06:11:09;3.67;;;3.20;;
30173;SDS011;16985;50.814;8.530;2023-03-15T06:13:35;6.18;;;4.10;;
30173;SDS011;16985;50.814;8.530;2023-03-15T06:16:07;5.00;;;4.20;;
30173;SDS011;16985;50.814;8.530;2023-03-15T06:18:37;4.65;;;3.63;;
30173;SDS011;16985;50.814;8.530;2023-03-15T06:21:03;4.15;;;3.70;;
30173;SDS011;16985;50.814;8.530;2023-03-15T06:23:29;7.13;;;3.80;;
30173;SDS011;16985;50.814;8.530;2023-03-15T06:25:55;7.07;;;3.88;;
30173;SDS011;16985;50.814;8.530;2023-03-15T06:28:21;8.10;;;4.30;;
30173;SDS011;16985;50.814;8.530;2023-03-15T06:30:52;5.72;;;4.80;;
30173;SDS011;16985;50.814;8.530;2023-03-15T06:33:23;5.35;;;4.18;;
30173;SDS011;16985;50.814;8.530;2023-03-15T06:35:49;5.90;;;3.90;;
30173;SDS011;16985;50.814;8.530;2023-03-15T06:38:15;5.25;;;4.75;;
30173;SDS011;16985;50.814;8.530;2023-03-15T06:40:41;6.43;;;4.45;;
30173;SDS011;16985;50.814;8.530;2023-03-15T06:43:08;7.30;;;4.72;;
30173;SDS011;16985;50.814;8.530;2023-03-15T06:45:38;5.13;;;3.67;;
30173;SDS011;16985;50.814;8.530;2023-03-15T06:48:04;4.32;;;3.92;;
30173;SDS011;16985;50.814;8.530;2023-03-15T06:50:30;4.30;;;3.75;;
30173;SDS011;16985;50.814;8.530;2023-03-15T06:52:56;7.00;;;3.70;;
30173;SDS011;16985;50.814;8.530;2023-03-15T06:55:24;4.47;;;3.90;;
30173;SDS011;16985;50.814;8.530;2023-03-15T06:57:50;5.00;;;3.97;;
30173;SDS011;16985;50.814;8.530;2023-03-15T07:00:16;3.38;;;3.08;;
30173;SDS011;16985;50.814;8.530;2023-03-15T07:02:42;5.35;;;3.60;;
30173;SDS011;16985;50.814;8.530;2023-03-15T07:05:08;3.95;;;3.15;;
30173;SDS011;16985;50.814;8.530;2023-03-15T07:07:35;3.65;;;3.35;;
30173;SDS011;16985;50.814;8.530;2023-03-15T07:10:01;3.50;;;3.20;;
30173;SDS011;16985;50.814;8.530;2023-03-15T07:12:26;3.83;;;3.08;;
30173;SDS011;16985;50.814;8.530;2023-03-15T07:14:52;2.95;;;2.65;;
30173;SDS011;16985;50.814;8.530;2023-03-15T07:17:18;4.32;;;2.80;;
30173;SDS011;16985;50.814;8.530;2023-03-15T07:19:44;2.63;;;2.42;;
30173;SDS011;16985;50.814;8.530;2023-03-15T07:22:10;3.40;;;3.10;;
30173;SDS011;16985;50.814;8.530;2023-03-15T07:24:35;3.40;;;2.83;;
30173;SDS011;16985;50.814;8.530;2023-03-15T07:27:01;3.72;;;2.53;;
30173;SDS011;16985;50.814;8.530;2023-03-15T07:29:27;3.65;;;2.30;;
30173;SDS011;16985;50.814;8.530;2023-03-15T07:31:53;2.45;;;2.25;;
30173;SDS011;16985;50.814;8.530;2023-03-15T07:36:47;2.20;;;2.00;;
30173;SDS011;16985;50.814;8.530;2023-03-15T07:39:13;2.70;;;2.40;;
30173;SDS011;16985;50.814;8.530;2023-03-15T07:41:40;3.63;;;2.50;;
30173;SDS011;16985;50.814;8.530;2023-03-15T07:44:13;2.47;;;2.28;;
30173;SDS011;16985;50.814;8.530;2023-03-15T07:46:39;2.35;;;2.15;;
30173;SDS011;16985;50.814;8.530;2023-03-15T07:51:33;2.65;;;2.08;;
30173;SDS011;16985;50.814;8.530;2023-03-15T07:53:59;2.15;;;1.95;;
30173;SDS011;16985;50.814;8.530;2023-03-15T07:56:25;2.72;;;2.15;;
30173;SDS011;16985;50.814;8.530;2023-03-15T07:58:51;3.05;;;2.22;;
30173;SDS011;16985;50.814;8.530;2023-03-15T08:01:16;3.20;;;2.63;;
30173;SDS011;16985;50.814;8.530;2023-03-15T08:03:42;2.42;;;2.13;;
30173;SDS011;16985;50.814;8.530;2023-03-15T08:06:08;3.28;;;2.22;;
30173;SDS011;16985;50.814;8.530;2023-03-15T08:08:34;2.63;;;2.33;;
30173;SDS011;16985;50.814;8.530;2023-03-15T08:11:00;3.53;;;2.50;;
30173;SDS011;16985;50.814;8.530;2023-03-15T08:13:28;2.28;;;2.08;;
30173;SDS011;16985;50.814;8.530;2023-03-15T08:15:54;2.25;;;2.10;;
30173;SDS011;16985;50.814;8.530;2023-03-15T08:18:20;2.67;;;2.47;;
30173;SDS011;16985;50.814;8.530;2023-03-15T08:20:46;2.63;;;2.22;;
30173;SDS011;16985;50.814;8.530;2023-03-15T08:23:12;2.65;;;2.28;;
30173;SDS011;16985;50.814;8.530;2023-03-15T08:28:09;3.05;;;2.75;;
30173;SDS011;16985;50.814;8.530;2023-03-15T08:30:35;2.90;;;2.58;;
30173;SDS011;16985;50.814;8.530;2023-03-15T08:33:01;2.80;;;2.60;;
30173;SDS011;16985;50.814;8.530;2023-03-15T08:35:27;2.70;;;2.50;;
30173;SDS011;16985;50.814;8.530;2023-03-15T08:37:55;2.72;;;2.53;;
30173;SDS011;16985;50.814;8.530;2023-03-15T08:40:20;3.17;;;2.88;;
30173;SDS011;16985;50.814;8.530;2023-03-15T08:43:02;2.90;;;2.67;;
30173;SDS011;16985;50.814;8.530;2023-03-15T08:45:28;3.45;;;2.83;;
30173;SDS011;16985;50.814;8.530;2023-03-15T08:47:54;2.85;;;2.65;;
30173;SDS011;16985;50.814;8.530;2023-03-15T08:50:22;13.02;;;3.00;;
30173;SDS011;16985;50.814;8.530;2023-03-15T08:52:48;6.88;;;3.03;;
30173;SDS011;16985;50.814;8.530;2023-03-15T08:55:14;7.88;;;3.63;;
30173;SDS011;16985;50.814;8.530;2023-03-15T08:57:44;6.15;;;4.10;;
30173;SDS011;16985;50.814;8.530;2023-03-15T09:00:13;4.20;;;3.40;;
30173;SDS011;16985;50.814;8.530;2023-03-15T09:02:47;7.13;;;3.00;;
30173;SDS011;16985;50.814;8.530;2023-03-15T09:05:14;4.07;;;2.88;;
30173;SDS011;16985;50.814;8.530;2023-03-15T09:07:50;10.73;;;3.33;;
30173;SDS011;16985;50.814;8.530;2023-03-15T09:10:19;4.55;;;3.22;;
30173;SDS011;16985;50.814;8.530;2023-03-15T09:12:50;5.22;;;2.85;;
30173;SDS011;16985;50.814;8.530;2023-03-15T09:15:17;5.43;;;3.60;;
30173;SDS011;16985;50.814;8.530;2023-03-15T09:17:43;6.80;;;3.67;;
30173;SDS011;16985;50.814;8.530;2023-03-15T09:20:13;4.43;;;3.17;;
30173;SDS011;16985;50.814;8.530;2023-03-15T09:22:44;3.95;;;3.28;;
30173;SDS011;16985;50.814;8.530;2023-03-15T09:25:22;3.70;;;3.25;;
30173;SDS011;16985;50.814;8.530;2023-03-15T09:27:50;5.80;;;3.40;;
30173;SDS011;16985;50.814;8.530;2023-03-15T09:30:16;15.40;;;4.38;;
30173;SDS011;16985;50.814;8.530;2023-03-15T09:32:42;9.10;;;3.70;;
30173;SDS011;16985;50.814;8.530;2023-03-15T09:35:11;7.25;;;3.63;;
30173;SDS011;16985;50.814;8.530;2023-03-15T09:37:40;4.28;;;3.67;;
30173;SDS011;16985;50.814;8.530;2023-03-15T09:40:10;9.63;;;3.63;;
30173;SDS011;16985;50.814;8.530;2023-03-15T09:43:00;8.48;;;4.25;;
30173;SDS011;16985;50.814;8.530;2023-03-15T09:48:58;7.15;;;4.63;;
30173;SDS011;16985;50.814;8.530;2023-03-15T09:54:26;9.23;;;5.03;;
30173;SDS011;16985;50.814;8.530;2023-03-15T09:57:00;17.77;;;4.32;;
30173;SDS011;16985;50.814;8.530;2023-03-15T09:59:44;9.75;;;4.50;;
30173;SDS011;16985;50.814;8.530;2023-03-15T10:02:27;6.95;;;4.22;;
30173;SDS011;16985;50.814;8.530;2023-03-15T10:05:05;5.28;;;3.90;;
30173;SDS011;16985;50.814;8.530;2023-03-15T10:07:40;13.10;;;4.30;;
30173;SDS011;16985;50.814;8.530;2023-03-15T10:10:16;9.77;;;4.03;;
30173;SDS011;16985;50.814;8.530;2023-03-15T10:12:50;7.50;;;3.80;;
30173;SDS011;16985;50.814;8.530;2023-03-15T10:18:21;8.48;;;4.63;;
30173;SDS011;16985;50.814;8.530;2023-03-15T10:21:31;6.07;;;3.60;;
30173;SDS011;16985;50.814;8.530;2023-03-15T10:24:17;7.35;;;3.97;;
30173;SDS011;16985;50.814;8.530;2023-03-15T10:30:18;6.65;;;4.32;;
30173;SDS011;16985;50.814;8.530;2023-03-15T10:35:42;7.75;;;4.00;;
30173;SDS011;16985;50.814;8.530;2023-03-15T10:38:18;6.53;;;4.55;;
30173;SDS011;16985;50.814;8.530;2023-03-15T10:40:47;6.25;;;4.47;;
30173;SDS011;16985;50.814;8.530;2023-03-15T10:43:28;11.00;;;5.25;;
30173;SDS011;16985;50.814;8.530;2023-03-15T10:48:35;12.57;;;5.60;;
30173;SDS011;16985;50.814;8.530;2023-03-15T10:51:04;13.80;;;6.30;;
30173;SDS011;16985;50.814;8.530;2023-03-15T10:53:50;8.05;;;5.18;;
30173;SDS011;16985;50.814;8.530;2023-03-15T10:56:30;6.47;;;4.88;;
30173;SDS011;16985;50.814;8.530;2023-03-15T10:59:02;16.77;;;6.10;;
30173;SDS011;16985;50.814;8.530;2023-03-15T11:01:28;6.32;;;5.20;;
30173;SDS011;16985;50.814;8.530;2023-03-15T11:09:20;8.32;;;5.68;;
30173;SDS011;16985;50.814;8.530;2023-03-15T11:11:55;11.48;;;5.70;;
30173;SDS011;16985;50.814;8.530;2023-03-15T11:14:24;14.60;;;5.50;;
30173;SDS011;16985;50.814;8.530;2023-03-15T11:17:10;15.13;;;5.55;;
30173;SDS011;16985;50.814;8.530;2023-03-15T11:19:45;10.18;;;6.38;;
30173;SDS011;16985;50.814;8.530;2023-03-15T11:22:37;6.75;;;5.30;;
30173;SDS011;16985;50.814;8.530;2023-03-15T11:25:04;6.95;;;5.10;;
30173;SDS011;16985;50.814;8.530;2023-03-15T11:27:36;9.40;;;5.93;;
30173;SDS011;16985;50.814;8.530;2023-03-15T11:30:02;9.57;;;5.25;;
30173;SDS011;16985;50.814;8.530;2023-03-15T11:32:37;8.00;;;5.43;;
30173;SDS011;16985;50.814;8.530;2023-03-15T11:37:54;11.35;;;5.97;;
30173;SDS011;16985;50.814;8.530;2023-03-15T11:43:09;12.32;;;5.53;;
30173;SDS011;16985;50.814;8.530;2023-03-15T11:45:50;8.70;;;6.20;;
30173;SDS011;16985;50.814;8.530;2023-03-15T11:48:50;7.82;;;6.15;;
30173;SDS011;16985;50.814;8.530;2023-03-15T11:51:32;7.68;;;5.88;;
30173;SDS011;16985;50.814;8.530;2023-03-15T11:54:21;8.23;;;6.00;;
30173;SDS011;16985;50.814;8.530;2023-03-15T11:56:51;11.23;;;7.53;;
30173;SDS011;16985;50.814;8.530;2023-03-15T11:59:23;10.80;;;7.03;;
30173;SDS011;16985;50.814;8.530;2023-03-15T12:04:40;13.20;;;7.43;;
30173;SDS011;16985;50.814;8.530;2023-03-15T12:17:58;6.97;;;5.00;;
30173;SDS011;16985;50.814;8.530;2023-03-15T12:20:37;11.75;;;4.78;;
30173;SDS011;16985;50.814;8.530;2023-03-15T12:25:48;9.98;;;5.22;;
30173;SDS011;16985;50.814;8.530;2023-03-15T12:28:41;9.38;;;5.25;;
30173;SDS011;16985;50.814;8.530;2023-03-15T12:31:18;9.45;;;4.95;;
30173;SDS011;16985;50.814;8.530;2023-03-15T12:36:18;8.45;;;4.20;;
30173;SDS011;16985;50.814;8.530;2023-03-15T12:41:45;7.80;;;4.00;;
30173;SDS011;16985;50.814;8.530;2023-03-15T12:46:56;7.20;;;3.63;;
30173;SDS011;16985;50.814;8.530;2023-03-15T12:49:29;5.63;;;2.72;;
30173;SDS011;16985;50.814;8.530;2023-03-15T12:54:44;4.93;;;2.95;;
30173;SDS011;16985;50.814;8.530;2023-03-15T12:57:21;5.60;;;2.70;;
30173;SDS011;16985;50.814;8.530;2023-03-15T12:59:58;6.18;;;2.90;;
30173;SDS011;16985;50.814;8.530;2023-03-15T13:02:34;4.45;;;2.97;;
30173;SDS011;16985;50.814;8.530;2023-03-15T13:16:22;4.70;;;2.95;;
30173;SDS011;16985;50.814;8.530;2023-03-15T13:19:29;7.32;;;2.20;;
30173;SDS011;16985;50.814;8.530;2023-03-15T13:25:07;3.75;;;1.88;;
30173;SDS011;16985;50.814;8.530;2023-03-15T13:30:32;3.50;;;1.50;;
30173;SDS011;16985;50.814;8.530;2023-03-15T13:33:05;7.10;;;1.95;;
30173;SDS011;16985;50.814;8.530;2023-03-15T13:35:58;4.35;;;1.50;;
30173;SDS011;16985;50.814;8.530;2023-03-15T13:38:41;4.47;;;2.03;;
30173;SDS011;16985;50.814;8.530;2023-03-15T13:41:20;1.98;;;1.40;;
30173;SDS011;16985;50.814;8.530;2023-03-15T13:43:52;4.28;;;1.88;;
30173;SDS011;16985;50.814;8.530;2023-03-15T13:46:24;7.15;;;2.22;;
30173;SDS011;16985;50.814;8.530;2023-03-15T13:48:54;5.85;;;1.90;;
30173;SDS011;16985;50.814;8.530;2023-03-15T13:51:24;6.15;;;2.35;;
30173;SDS011;16985;50.814;8.530;2023-03-15T13:54:03;4.75;;;1.80;;
30173;SDS011;16985;50.814;8.530;2023-03-15T13:57:12;4.68;;;1.90;;
30173;SDS011;16985;50.814;8.530;2023-03-15T14:04:52;4.75;;;1.95;;
30173;SDS011;16985;50.814;8.530;2023-03-15T14:07:25;3.05;;;2.25;;
30173;SDS011;16985;50.814;8.530;2023-03-15T14:15:57;6.35;;;2.95;;
30173;SDS011;16985;50.814;8.530;2023-03-15T14:18:35;6.47;;;2.58;;
30173;SDS011;16985;50.814;8.530;2023-03-15T14:21:10;3.63;;;2.30;;
30173;SDS011;16985;50.814;8.530;2023-03-15T14:23:42;4.25;;;2.10;;
30173;SDS011;16985;50.814;8.530;2023-03-15T14:29:03;5.07;;;2.88;;
30173;SDS011;16985;50.814;8.530;2023-03-15T14:31:48;5.97;;;2.70;;
30173;SDS011;16985;50.814;8.530;2023-03-15T14:34:32;4.18;;;2.25;;
30173;SDS011;16985;50.814;8.530;2023-03-15T14:37:26;5.95;;;2.80;;
30173;SDS011;16985;50.814;8.530;2023-03-15T14:42:53;11.82;;;4.47;;
30173;SDS011;16985;50.814;8.530;2023-03-15T14:45:20;9.98;;;3.47;;
30173;SDS011;16985;50.814;8.530;2023-03-15T14:48:03;6.70;;;3.75;;
30173;SDS011;16985;50.814;8.530;2023-03-15T14:50:51;6.43;;;2.80;;
30173;SDS011;16985;50.814;8.530;2023-03-15T14:53:20;5.70;;;2.67;;
30173;SDS011;16985;50.814;8.530;2023-03-15T14:55:48;7.40;;;3.25;;
30173;SDS011;16985;50.814;8.530;2023-03-15T14:58:18;7.97;;;3.10;;
30173;SDS011;16985;50.814;8.530;2023-03-15T15:00:50;11.90;;;3.17;;
30173;SDS011;16985;50.814;8.530;2023-03-15T15:03:28;6.55;;;2.78;;
30173;SDS011;16985;50.814;8.530;2023-03-15T15:06:02;12.02;;;3.17;;
30173;SDS011;16985;50.814;8.530;2023-03-15T15:08:31;7.68;;;3.25;;
30173;SDS011;16985;50.814;8.530;2023-03-15T15:11:10;6.72;;;2.95;;
30173;SDS011;16985;50.814;8.530;2023-03-15T15:13:36;3.95;;;2.42;;
30173;SDS011;16985;50.814;8.530;2023-03-15T15:16:03;3.17;;;2.45;;
30173;SDS011;16985;50.814;8.530;2023-03-15T15:18:31;7.60;;;2.50;;
30173;SDS011;16985;50.814;8.530;2023-03-15T15:20:59;6.82;;;2.60;;
30173;SDS011;16985;50.814;8.530;2023-03-15T15:23:38;7.03;;;3.03;;
30173;SDS011;16985;50.814;8.530;2023-03-15T15:26:12;5.07;;;2.55;;
30173;SDS011;16985;50.814;8.530;2023-03-15T15:28:43;5.18;;;2.92;;
30173;SDS011;16985;50.814;8.530;2023-03-15T15:31:10;6.55;;;3.42;;
30173;SDS011;16985;50.814;8.530;2023-03-15T15:33:41;8.80;;;2.90;;
30173;SDS011;16985;50.814;8.530;2023-03-15T15:36:11;8.18;;;2.83;;
30173;SDS011;16985;50.814;8.530;2023-03-15T15:38:50;6.30;;;2.30;;
30173;SDS011;16985;50.814;8.530;2023-03-15T15:41:23;9.05;;;3.30;;
30173;SDS011;16985;50.814;8.530;2023-03-15T15:43:51;6.38;;;2.83;;
30173;SDS011;16985;50.814;8.530;2023-03-15T15:46:17;3.88;;;2.30;;
30173;SDS011;16985;50.814;8.530;2023-03-15T15:48:43;7.72;;;2.83;;
30173;SDS011;16985;50.814;8.530;2023-03-15T15:51:13;9.10;;;2.65;;
30173;SDS011;16985;50.814;8.530;2023-03-15T15:53:53;5.18;;;3.17;;
30173;SDS011;16985;50.814;8.530;2023-03-15T15:56:23;5.20;;;3.08;;
30173;SDS011;16985;50.814;8.530;2023-03-15T15:58:59;7.80;;;2.63;;
30173;SDS011;16985;50.814;8.530;2023-03-15T16:01:28;4.25;;;2.35;;
30173;SDS011;16985;50.814;8.530;2023-03-15T16:03:54;4.80;;;3.03;;
30173;SDS011;16985;50.814;8.530;2023-03-15T16:06:20;8.23;;;2.88;;
30173;SDS011;16985;50.814;8.530;2023-03-15T16:08:47;7.03;;;2.63;;
30173;SDS011;16985;50.814;8.530;2023-03-15T16:11:18;9.48;;;2.85;;
30173;SDS011;16985;50.814;8.530;2023-03-15T16:13:45;8.55;;;2.90;;
30173;SDS011;16985;50.814;8.530;2023-03-15T16:16:14;11.45;;;3.22;;
30173;SDS011;16985;50.814;8.530;2023-03-15T16:18:53;5.28;;;3.17;;
30173;SDS011;16985;50.814;8.530;2023-03-15T16:24:16;8.50;;;3.35;;
30173;SDS011;16985;50.814;8.530;2023-03-15T16:26:46;13.52;;;3.17;;
30173;SDS011;16985;50.814;8.530;2023-03-15T16:29:20;14.23;;;4.05;;
30173;SDS011;16985;50.814;8.530;2023-03-15T16:31:48;9.85;;;3.33;;
30173;SDS011;16985;50.814;8.530;2023-03-15T16:34:15;9.23;;;3.17;;
30173;SDS011;16985;50.814;8.530;2023-03-15T16:36:58;9.05;;;3.90;;
30173;SDS011;16985;50.814;8.530;2023-03-15T16:39:25;9.48;;;2.92;;
30173;SDS011;16985;50.814;8.530;2023-03-15T16:41:56;13.30;;;4.13;;
30173;SDS011;16985;50.814;8.530;2023-03-15T16:44:22;16.77;;;4.35;;
30173;SDS011;16985;50.814;8.530;2023-03-15T16:46:50;13.88;;;5.32;;
30173;SDS011;16985;50.814;8.530;2023-03-15T16:49:16;23.33;;;6.93;;
30173;SDS011;16985;50.814;8.530;2023-03-15T16:51:43;24.45;;;6.95;;
30173;SDS011;16985;50.814;8.530;2023-03-15T16:54:13;25.52;;;7.00;;
30173;SDS011;16985;50.814;8.530;2023-03-15T16:56:39;18.23;;;6.55;;
30173;SDS011;16985;50.814;8.530;2023-03-15T16:59:05;29.40;;;8.52;;
30173;SDS011;16985;50.814;8.530;2023-03-15T17:01:31;29.20;;;9.05;;
30173;SDS011;16985;50.814;8.530;2023-03-15T17:03:59;40.58;;;11.35;;
30173;SDS011;16985;50.814;8.530;2023-03-15T17:06:26;53.40;;;13.70;;